Time,TemperatureF,DewpointF,PressureIn,WindDirection,WindDirectionDegrees,WindSpeedMPH,WindSpeedGustMPH,Humidity,HourlyPrecipIn,Conditions,Clouds,dailyrainin,SoftwareType,DateUTC
2013-09-08 00:02:00,-999.0,-99.9,30.15,NNW,342,0.0,0.0,-999,-99.99,,,-99.99,,2013-09-08 04:02:00,
2013-09-08 00:24:00,59.0,58.0,30.15,NNW,342,0.0,0.0,98,0.00,,,0.01,,2013-09-08 04:24:00,
2013-09-08 00:54:00,58.0,57.0,30.15,NNW,342,0.0,0.0,98,0.00,,,0.01,,2013-09-08 04:54:00,
2013-09-08 01:13:00,58.0,57.0,30.14,NNW,342,0.0,0.0,98,0.00,,,0.01,,2013-09-08 05:13:00,
2013-09-08 01:23:00,58.0,58.0,30.14,NNW,342,0.0,0.0,99,0.00,,,0.01,,2013-09-08 05:23:00,
2013-09-08 01:52:00,58.0,58.0,30.15,NNW,342,0.0,0.0,99,0.00,,,0.01,,2013-09-08 05:52:00,
2013-09-08 02:13:00,58.0,58.0,30.14,NNW,342,0.0,0.0,99,0.00,,,0.01,,2013-09-08 06:13:00,
2013-09-08 02:22:00,58.0,58.0,30.14,NNW,342,0.0,0.0,99,0.00,,,0.01,,2013-09-08 06:22:00,
2013-09-08 02:53:00,58.0,58.0,30.14,NNW,342,0.0,0.0,99,0.00,,,0.01,,2013-09-08 06:53:00,
2013-09-08 03:12:00,58.0,58.0,30.13,NNW,342,0.0,0.0,99,0.00,,,0.01,,2013-09-08 07:12:00,
2013-09-08 03:23:00,58.0,58.0,30.13,NNW,342,0.0,0.0,99,0.00,,,0.01,,2013-09-08 07:23:00,
2013-09-08 03:52:00,57.0,57.0,30.12,NNW,342,0.0,0.0,99,0.00,,,0.01,,2013-09-08 07:52:00,
2013-09-08 04:22:00,57.0,57.0,30.11,NNW,342,0.0,0.0,99,0.00,,,0.01,,2013-09-08 08:22:00,
2013-09-08 04:52:00,58.0,58.0,30.11,NNW,342,0.0,0.0,100,0.00,,,0.01,,2013-09-08 08:52:00,
2013-09-08 05:22:00,58.0,58.0,30.11,NNW,342,0.0,0.0,99,0.00,,,0.01,,2013-09-08 09:22:00,
2013-09-08 05:54:00,58.0,58.0,30.10,NNW,342,0.0,0.0,99,0.00,,,0.01,,2013-09-08 09:54:00,
2013-09-08 06:12:00,57.0,57.0,30.10,NNW,342,0.0,0.0,99,0.00,,,0.01,,2013-09-08 10:12:00,
2013-09-08 06:23:00,57.0,57.0,30.10,NNW,342,0.0,0.0,99,0.00,,,0.01,,2013-09-08 10:23:00,
2013-09-08 06:53:00,57.0,57.0,30.11,NNW,342,0.0,1.0,100,0.00,,,0.00,,2013-09-08 10:53:00,
2013-09-08 07:12:00,58.0,58.0,30.11,NNW,343,0.0,0.0,100,0.01,,,0.01,,2013-09-08 11:12:00,
2013-09-08 07:22:00,58.0,58.0,30.11,NNW,343,0.0,1.0,100,0.01,,,0.01,,2013-09-08 11:22:00,
2013-09-08 07:52:00,58.0,58.0,30.11,East,98,0.0,3.0,100,0.01,,,0.01,,2013-09-08 11:52:00,
2013-09-08 08:12:00,60.0,60.0,30.11,SE,126,0.0,6.0,100,0.00,,,0.01,,2013-09-08 12:12:00,
2013-09-08 08:22:00,61.0,61.0,30.11,SE,126,0.0,2.0,100,0.00,,,0.01,,2013-09-08 12:22:00,
2013-09-08 08:52:00,61.0,61.0,30.11,SE,126,0.0,1.0,100,0.00,,,0.01,,2013-09-08 12:52:00,
2013-09-08 09:12:00,61.0,61.0,30.11,SE,126,0.0,1.0,100,0.00,,,0.01,,2013-09-08 13:12:00,
2013-09-08 09:22:00,61.0,61.0,30.11,SE,126,0.0,2.0,100,0.00,,,0.01,,2013-09-08 13:22:00,
2013-09-08 09:51:00,63.0,62.0,30.11,SE,144,1.0,2.0,97,0.00,,,0.01,,2013-09-08 13:51:00,
2013-09-08 09:52:00,62.0,62.0,30.11,ESE,123,0.0,3.0,100,0.00,,,0.01,,2013-09-08 13:52:00,
2013-09-08 10:11:00,63.0,63.0,30.11,ESE,123,0.0,1.0,99,0.00,,,0.01,,2013-09-08 14:11:00,
2013-09-08 10:22:00,63.0,62.0,30.11,SE,144,1.0,2.0,97,0.00,,,0.01,,2013-09-08 14:22:00,
2013-09-08 10:32:00,63.0,62.0,30.11,SE,144,1.0,2.0,97,0.00,,,0.01,,2013-09-08 14:32:00,
2013-09-08 11:55:00,69.0,64.0,30.11,NE,50,0.0,3.0,85,0.00,,,0.01,,2013-09-08 15:55:00,
2013-09-08 12:14:00,69.0,61.0,30.10,SSE,162,1.0,4.0,77,0.00,,,0.01,,2013-09-08 16:14:00,
2013-09-08 12:24:00,70.0,61.0,30.10,South,184,2.0,4.0,74,0.00,,,0.01,,2013-09-08 16:24:00,
2013-09-08 12:53:00,71.0,64.0,30.11,South,188,1.0,8.0,78,0.00,,,0.01,,2013-09-08 16:53:00,
2013-09-08 13:12:00,72.0,63.0,30.11,SSE,161,0.0,6.0,74,0.00,,,0.01,,2013-09-08 17:12:00,
2013-09-08 13:24:00,71.0,63.0,30.11,South,171,0.0,6.0,77,0.00,,,0.01,,2013-09-08 17:24:00,
2013-09-08 13:53:00,69.0,62.0,30.11,SSW,197,0.0,3.0,78,0.00,,,0.01,,2013-09-08 17:53:00,
2013-09-08 14:22:00,68.0,63.0,30.10,West,279,0.0,2.0,85,0.00,,,0.01,,2013-09-08 18:22:00,
2013-09-08 14:52:00,72.0,63.0,30.10,SSW,202,1.0,3.0,73,0.00,,,0.01,,2013-09-08 18:52:00,
2013-09-08 15:12:00,72.0,60.0,30.10,SSW,202,0.0,1.0,67,0.00,,,0.01,,2013-09-08 19:12:00,
2013-09-08 15:22:00,71.0,59.0,30.09,East,80,1.0,3.0,66,0.00,,,0.01,,2013-09-08 19:22:00,
2013-09-08 15:52:00,70.0,64.0,30.08,East,80,0.0,2.0,81,0.00,,,0.01,,2013-09-08 19:52:00,
2013-09-08 16:12:00,70.0,61.0,30.08,East,80,0.0,2.0,72,0.00,,,0.01,,2013-09-08 20:12:00,
2013-09-08 16:22:00,71.0,64.0,30.08,East,80,0.0,1.0,79,0.00,,,0.01,,2013-09-08 20:22:00,
2013-09-08 16:53:00,70.0,64.0,30.08,NNW,340,0.0,2.0,82,0.00,,,0.01,,2013-09-08 20:53:00,
2013-09-08 17:22:00,71.0,63.0,30.08,SSW,211,0.0,3.0,75,0.00,,,0.01,,2013-09-08 21:22:00,
2013-09-08 17:54:00,71.0,63.0,30.07,SE,126,0.0,2.0,75,0.00,,,0.01,,2013-09-08 21:54:00,
2013-09-08 18:13:00,71.0,64.0,30.07,SSE,165,0.0,3.0,78,0.00,,,0.01,,2013-09-08 22:13:00,
2013-09-08 18:25:00,71.0,63.0,30.07,East,97,1.0,3.0,75,0.00,,,0.01,,2013-09-08 22:25:00,
2013-09-08 18:53:00,70.0,65.0,30.07,SSE,157,0.0,3.0,83,0.00,,,0.01,,2013-09-08 22:53:00,
2013-09-08 19:22:00,70.0,64.0,30.07,SSE,157,0.0,2.0,81,0.00,,,0.01,,2013-09-08 23:22:00,
2013-09-08 19:52:00,68.0,62.0,30.06,SE,136,0.0,1.0,82,0.00,,,0.01,,2013-09-08 23:52:00,
2013-09-08 20:12:00,67.0,63.0,30.06,SE,136,0.0,0.0,87,0.00,,,0.01,,2013-09-09 00:12:00,
2013-09-08 20:22:00,66.0,63.0,30.07,SE,136,0.0,1.0,89,0.00,,,0.01,,2013-09-09 00:22:00,
2013-09-08 20:52:00,65.0,62.0,30.08,SE,136,0.0,0.0,89,0.00,,,0.01,,2013-09-09 00:52:00,
2013-09-08 21:12:00,64.0,61.0,30.08,SE,136,0.0,0.0,90,0.00,,,0.01,,2013-09-09 01:12:00,
2013-09-08 21:21:00,63.0,61.0,30.09,SE,136,0.0,0.0,92,0.00,,,0.01,,2013-09-09 01:21:00,
2013-09-08 21:52:00,62.0,60.0,30.09,SE,136,0.0,0.0,94,0.00,,,0.01,,2013-09-09 01:52:00,
2013-09-08 22:22:00,61.0,59.0,30.10,SE,136,0.0,0.0,94,0.00,,,0.01,,2013-09-09 02:22:00,
2013-09-08 22:42:00,61.0,60.0,30.10,SE,136,0.0,0.0,95,0.00,,,0.01,,2013-09-09 02:42:00,
2013-09-08 22:52:00,61.0,60.0,30.10,SE,136,0.0,0.0,96,0.00,,,0.01,,2013-09-09 02:52:00,
2013-09-08 23:22:00,60.0,59.0,30.11,SE,136,0.0,0.0,96,0.00,,,0.01,,2013-09-09 03:22:00,
2013-09-08 23:55:00,60.0,59.0,30.12,SE,136,0.0,0.0,97,0.00,,,0.01,,2013-09-09 03:55:00,